SBN weather

South Bend Regional Airport
South Bend, Indiana, United States

Public forecast

Using degrees Fahrenheit for public forecast. Weather courtesy of forecast.io.

Current aviation weather report (METAR) for South Bend Regional Airport

Retrieved 2020/07/09 23:54 UTC (25 minutes ago):

KSBN 092354Z 17007KT 10SM CLR 32/21 A2982 RMK AO2 SLP089 T03220206 10339 20317 56012

Aviation forecast (TAF) for South Bend Regional Airport

Retrieved 2020-07-10 00:42 UTC (0 seconds ago):

TAF KSBN 092338Z 1000/1024 18006KT P6SM SCT050 FM100700 18005KT P6SM VCTS SCT050CB BKN100 TEMPO 1007/1010 3SM -TSRA BR BKN050CB FM101400 28007KT 6SM BR VCSH BKN030 FM101700 30011G18KT 6SM -SHRA BR OVC035 FM102200 31012G19KT P6SM BKN035